KAC615 OKKK-OBBI
Flight info
| Callsign | KAC615 |
|---|---|
| Flight time | 0h 46m |
| Altitude | 27000 |
| Route | BOXIK B416 IMDOX P975 LONOS L703 KOBOK |
| Aircraft | A320/M-SDE3FGHIRWY/LB1 |
Departure
| Time | 2026-04-27 17:02 |
|---|---|
| Airport | Kuwait International Airport (OKKK) |
Arrival
| Time | 2026-04-27 17:48 |
|---|---|
| Airport | Bahrain International Airport (OBBI) |
| Time | Latitude | Longitude | Altitude | Speed | Heading |
|---|---|---|---|---|---|
| 2026-04-27 16:32 | 29.24533 | 47.96282 | 167 ft | 0 kts | 65° |
| 2026-04-27 16:54 | 29.24528 | 47.96271 | 167 ft | 4 kts | 65° |
| 2026-04-27 16:54 | 29.24517 | 47.96243 | 166 ft | 4 kts | 65° |
| 2026-04-27 16:54 | 29.24506 | 47.96214 | 166 ft | 4 kts | 72° |
| 2026-04-27 16:54 | 29.24500 | 47.96185 | 165 ft | 4 kts | 91° |
| 2026-04-27 16:55 | 29.24507 | 47.96161 | 165 ft | 3 kts | 149° |
| 2026-04-27 16:55 | 29.24510 | 47.96158 | 165 ft | 0 kts | 155° |
| 2026-04-27 16:58 | 29.24509 | 47.96159 | 165 ft | 1 kts | 155° |
| 2026-04-27 16:59 | 29.24485 | 47.96171 | 165 ft | 5 kts | 155° |
| 2026-04-27 16:59 | 29.24436 | 47.96198 | 165 ft | 10 kts | 155° |
| 2026-04-27 16:59 | 29.24366 | 47.96234 | 164 ft | 12 kts | 155° |
| 2026-04-27 16:59 | 29.24282 | 47.96279 | 164 ft | 15 kts | 155° |
| 2026-04-27 17:00 | 29.24138 | 47.96237 | 161 ft | 19 kts | 248° |
| 2026-04-27 17:00 | 29.24037 | 47.96172 | 160 ft | 9 kts | 213° |
| 2026-04-27 17:00 | 29.23981 | 47.96188 | 160 ft | 10 kts | 156° |
| 2026-04-27 17:01 | 29.23912 | 47.96223 | 160 ft | 12 kts | 155° |
| 2026-04-27 17:01 | 29.23766 | 47.96302 | 160 ft | 52 kts | 154° |
| 2026-04-27 17:01 | 29.23224 | 47.96592 | 164 ft | 117 kts | 155° |
| 2026-04-27 17:01 | 29.22319 | 47.97073 | 249 ft | 160 kts | 155° |
| 2026-04-27 17:02 | 29.21321 | 47.97584 | 963 ft | 157 kts | 156° |
| 2026-04-27 17:02 | 29.20312 | 47.98104 | 1590 ft | 166 kts | 159° |
| 2026-04-27 17:02 | 29.19189 | 47.98677 | 1988 ft | 187 kts | 159° |
| 2026-04-27 17:02 | 29.17924 | 47.99323 | 2265 ft | 212 kts | 159° |
| 2026-04-27 17:03 | 29.16506 | 48.00064 | 2638 ft | 237 kts | 155° |
| 2026-04-27 17:03 | 29.15241 | 48.01414 | 3167 ft | 265 kts | 123° |
| 2026-04-27 17:03 | 29.14584 | 48.03425 | 3973 ft | 274 kts | 113° |
| 2026-04-27 17:03 | 29.13854 | 48.05359 | 4799 ft | 275 kts | 121° |
| 2026-04-27 17:04 | 29.12942 | 48.07296 | 5658 ft | 279 kts | 123° |
| 2026-04-27 17:04 | 29.11974 | 48.09240 | 6520 ft | 283 kts | 124° |
| 2026-04-27 17:04 | 29.10996 | 48.11222 | 7329 ft | 289 kts | 123° |
| 2026-04-27 17:05 | 29.09050 | 48.15355 | 8938 ft | 301 kts | 121° |
| 2026-04-27 17:05 | 29.08077 | 48.17501 | 9720 ft | 307 kts | 120° |
| 2026-04-27 17:05 | 29.07087 | 48.19714 | 10250 ft | 322 kts | 120° |
| 2026-04-27 17:05 | 29.06380 | 48.21297 | 10424 ft | 339 kts | 120° |
| 2026-04-27 17:06 | 29.04904 | 48.24606 | 10844 ft | 364 kts | 119° |
| 2026-04-27 17:06 | 29.03744 | 48.27215 | 11473 ft | 371 kts | 119° |
| 2026-04-27 17:06 | 29.02570 | 48.29861 | 12167 ft | 376 kts | 119° |
| 2026-04-27 17:06 | 29.01379 | 48.32544 | 12878 ft | 381 kts | 119° |
| 2026-04-27 17:07 | 29.00166 | 48.35265 | 13587 ft | 386 kts | 119° |
| 2026-04-27 17:07 | 28.98939 | 48.38015 | 14229 ft | 391 kts | 119° |
| 2026-04-27 17:07 | 28.97697 | 48.40795 | 14780 ft | 395 kts | 119° |
| 2026-04-27 17:07 | 28.96447 | 48.43589 | 15100 ft | 396 kts | 119° |
| 2026-04-27 17:08 | 28.95191 | 48.46391 | 15062 ft | 394 kts | 119° |
| 2026-04-27 17:08 | 28.93943 | 48.49169 | 15035 ft | 392 kts | 120° |
| 2026-04-27 17:08 | 28.92698 | 48.51938 | 15077 ft | 393 kts | 119° |
| 2026-04-27 17:08 | 28.91444 | 48.54735 | 15696 ft | 397 kts | 119° |
| 2026-04-27 17:09 | 28.90179 | 48.57552 | 16357 ft | 401 kts | 120° |
| 2026-04-27 17:09 | 28.88896 | 48.60405 | 16972 ft | 406 kts | 120° |
| 2026-04-27 17:09 | 28.87616 | 48.63242 | 17560 ft | 411 kts | 120° |
| 2026-04-27 17:09 | 28.86281 | 48.66194 | 18160 ft | 416 kts | 120° |
| 2026-04-27 17:10 | 28.84969 | 48.69097 | 18651 ft | 420 kts | 120° |
| 2026-04-27 17:10 | 28.83626 | 48.72075 | 19162 ft | 423 kts | 120° |
| 2026-04-27 17:10 | 28.82273 | 48.75075 | 19687 ft | 427 kts | 120° |
| 2026-04-27 17:10 | 28.80910 | 48.78096 | 20203 ft | 431 kts | 120° |
| 2026-04-27 17:11 | 28.79519 | 48.81141 | 20708 ft | 434 kts | 121° |
| 2026-04-27 17:11 | 28.76573 | 48.87209 | 21688 ft | 441 kts | 123° |
| 2026-04-27 17:11 | 28.75051 | 48.90253 | 22176 ft | 444 kts | 123° |
| 2026-04-27 17:12 | 28.71973 | 48.96422 | 23110 ft | 452 kts | 123° |
| 2026-04-27 17:12 | 28.70423 | 48.99555 | 23498 ft | 456 kts | 123° |
| 2026-04-27 17:12 | 28.68863 | 49.02721 | 23870 ft | 460 kts | 123° |
| 2026-04-27 17:13 | 28.67295 | 49.05909 | 24252 ft | 463 kts | 123° |
| 2026-04-27 17:13 | 28.65716 | 49.09125 | 24627 ft | 466 kts | 123° |
| 2026-04-27 17:13 | 28.64131 | 49.12352 | 24985 ft | 470 kts | 123° |
| 2026-04-27 17:13 | 28.62527 | 49.15608 | 25337 ft | 473 kts | 124° |
| 2026-04-27 17:14 | 28.60898 | 49.18871 | 25686 ft | 474 kts | 127° |
| 2026-04-27 17:14 | 28.58968 | 49.21902 | 26021 ft | 471 kts | 136° |
| 2026-04-27 17:14 | 28.56697 | 49.24499 | 26311 ft | 467 kts | 146° |
| 2026-04-27 17:14 | 28.54092 | 49.26669 | 26650 ft | 461 kts | 155° |
| 2026-04-27 17:15 | 28.51309 | 49.28465 | 26797 ft | 462 kts | 156° |
| 2026-04-27 17:15 | 28.48683 | 49.30646 | 26828 ft | 473 kts | 146° |
| 2026-04-27 17:15 | 28.46219 | 49.33133 | 26832 ft | 474 kts | 145° |
| 2026-04-27 17:15 | 28.43751 | 49.35630 | 26832 ft | 474 kts | 145° |
| 2026-04-27 17:16 | 28.41283 | 49.38110 | 26819 ft | 474 kts | 146° |
| 2026-04-27 17:16 | 28.39610 | 49.39780 | 26830 ft | 474 kts | 146° |
| 2026-04-27 17:16 | 28.37127 | 49.42244 | 26827 ft | 474 kts | 146° |
| 2026-04-27 17:16 | 28.34644 | 49.44696 | 26834 ft | 473 kts | 146° |
| 2026-04-27 17:17 | 28.32158 | 49.47146 | 26834 ft | 473 kts | 146° |
| 2026-04-27 17:17 | 28.29675 | 49.49594 | 26832 ft | 473 kts | 146° |
| 2026-04-27 17:17 | 28.27190 | 49.52041 | 26827 ft | 473 kts | 146° |
| 2026-04-27 17:18 | 28.22220 | 49.56937 | 26809 ft | 473 kts | 147° |
| 2026-04-27 17:18 | 28.19700 | 49.59325 | 26813 ft | 470 kts | 149° |
| 2026-04-27 17:18 | 28.17131 | 49.61603 | 26814 ft | 468 kts | 150° |
| 2026-04-27 17:18 | 28.14524 | 49.63808 | 26810 ft | 467 kts | 151° |
| 2026-04-27 17:19 | 28.11899 | 49.65980 | 26808 ft | 467 kts | 152° |
| 2026-04-27 17:19 | 28.09310 | 49.68121 | 26813 ft | 467 kts | 151° |
| 2026-04-27 17:19 | 28.06690 | 49.70312 | 26795 ft | 468 kts | 151° |
| 2026-04-27 17:19 | 28.04087 | 49.72508 | 26805 ft | 467 kts | 151° |
| 2026-04-27 17:20 | 28.01456 | 49.74658 | 26813 ft | 466 kts | 152° |
| 2026-04-27 17:20 | 27.98800 | 49.76750 | 26816 ft | 465 kts | 153° |
| 2026-04-27 17:20 | 27.96121 | 49.78812 | 26812 ft | 465 kts | 154° |
| 2026-04-27 17:20 | 27.93441 | 49.80853 | 26812 ft | 465 kts | 154° |
| 2026-04-27 17:21 | 27.90757 | 49.82902 | 26792 ft | 465 kts | 153° |
| 2026-04-27 17:21 | 27.88078 | 49.84959 | 26798 ft | 466 kts | 153° |
| 2026-04-27 17:21 | 27.85398 | 49.87027 | 26803 ft | 466 kts | 153° |
| 2026-04-27 17:21 | 27.82727 | 49.89097 | 26804 ft | 466 kts | 153° |
| 2026-04-27 17:22 | 27.80052 | 49.91174 | 26808 ft | 466 kts | 153° |
| 2026-04-27 17:22 | 27.77383 | 49.93246 | 26810 ft | 466 kts | 153° |
| 2026-04-27 17:22 | 27.74709 | 49.95318 | 26809 ft | 466 kts | 153° |
| 2026-04-27 17:22 | 27.72033 | 49.97391 | 26801 ft | 466 kts | 153° |
| 2026-04-27 17:23 | 27.69353 | 49.99463 | 26800 ft | 467 kts | 153° |
| 2026-04-27 17:23 | 27.66665 | 50.01539 | 26803 ft | 467 kts | 153° |
| 2026-04-27 17:23 | 27.63981 | 50.03607 | 26805 ft | 467 kts | 153° |
| 2026-04-27 17:23 | 27.61295 | 50.05677 | 26804 ft | 468 kts | 153° |
| 2026-04-27 17:24 | 27.58607 | 50.07747 | 26805 ft | 468 kts | 153° |
| 2026-04-27 17:24 | 27.55918 | 50.09817 | 26806 ft | 468 kts | 153° |
| 2026-04-27 17:24 | 27.53232 | 50.11891 | 26793 ft | 468 kts | 153° |
| 2026-04-27 17:24 | 27.50544 | 50.13968 | 26796 ft | 469 kts | 153° |
| 2026-04-27 17:25 | 27.47855 | 50.16041 | 26797 ft | 469 kts | 153° |
| 2026-04-27 17:25 | 27.45158 | 50.18113 | 26800 ft | 469 kts | 153° |
| 2026-04-27 17:25 | 27.42470 | 50.20201 | 26809 ft | 470 kts | 152° |
| 2026-04-27 17:25 | 27.39801 | 50.22336 | 26805 ft | 471 kts | 151° |
| 2026-04-27 17:26 | 27.37184 | 50.24474 | 26806 ft | 472 kts | 151° |
| 2026-04-27 17:26 | 27.34540 | 50.26656 | 26421 ft | 469 kts | 151° |
| 2026-04-27 17:26 | 27.31903 | 50.28825 | 25659 ft | 469 kts | 151° |
| 2026-04-27 17:26 | 27.29263 | 50.30980 | 24929 ft | 468 kts | 151° |
| 2026-04-27 17:27 | 27.26631 | 50.33116 | 24249 ft | 465 kts | 151° |
| 2026-04-27 17:27 | 27.24003 | 50.35240 | 23575 ft | 463 kts | 151° |
| 2026-04-27 17:27 | 27.21394 | 50.37341 | 22850 ft | 460 kts | 151° |
| 2026-04-27 17:27 | 27.18803 | 50.39427 | 22193 ft | 456 kts | 150° |
| 2026-04-27 17:28 | 27.16245 | 50.41491 | 21628 ft | 449 kts | 150° |
| 2026-04-27 17:28 | 27.13716 | 50.43529 | 21047 ft | 444 kts | 149° |
| 2026-04-27 17:28 | 27.08756 | 50.47522 | 19862 ft | 431 kts | 149° |
| 2026-04-27 17:29 | 27.06344 | 50.49466 | 18873 ft | 424 kts | 148° |
| 2026-04-27 17:29 | 27.03970 | 50.51379 | 17928 ft | 416 kts | 148° |
| 2026-04-27 17:29 | 27.01691 | 50.53217 | 17701 ft | 389 kts | 148° |
| 2026-04-27 17:29 | 26.99473 | 50.54725 | 17559 ft | 359 kts | 159° |
| 2026-04-27 17:30 | 26.97251 | 50.55744 | 17429 ft | 332 kts | 168° |
| 2026-04-27 17:30 | 26.93078 | 50.56607 | 17145 ft | 287 kts | 184° |
| 2026-04-27 17:30 | 26.91110 | 50.56690 | 16777 ft | 279 kts | 183° |
| 2026-04-27 17:31 | 26.89186 | 50.57166 | 16321 ft | 286 kts | 158° |
| 2026-04-27 17:31 | 26.87538 | 50.58438 | 15845 ft | 290 kts | 144° |
| 2026-04-27 17:31 | 26.85996 | 50.59895 | 15394 ft | 289 kts | 143° |
| 2026-04-27 17:31 | 26.84474 | 50.61361 | 14971 ft | 287 kts | 143° |
| 2026-04-27 17:32 | 26.82970 | 50.62808 | 14549 ft | 285 kts | 143° |
| 2026-04-27 17:32 | 26.79998 | 50.65643 | 13750 ft | 280 kts | 143° |
| 2026-04-27 17:32 | 26.78515 | 50.67031 | 13336 ft | 277 kts | 143° |
| 2026-04-27 17:33 | 26.77041 | 50.68406 | 12892 ft | 274 kts | 143° |
| 2026-04-27 17:33 | 26.75586 | 50.69767 | 12448 ft | 272 kts | 143° |
| 2026-04-27 17:33 | 26.74140 | 50.71124 | 12008 ft | 270 kts | 143° |
| 2026-04-27 17:33 | 26.72711 | 50.72469 | 11568 ft | 267 kts | 143° |
| 2026-04-27 17:34 | 26.71295 | 50.73805 | 11126 ft | 265 kts | 143° |
| 2026-04-27 17:34 | 26.69891 | 50.75134 | 10697 ft | 263 kts | 143° |
| 2026-04-27 17:34 | 26.68503 | 50.76451 | 10254 ft | 261 kts | 143° |
| 2026-04-27 17:34 | 26.67126 | 50.77762 | 9816 ft | 259 kts | 143° |
| 2026-04-27 17:35 | 26.65766 | 50.79060 | 9356 ft | 256 kts | 143° |
| 2026-04-27 17:35 | 26.64416 | 50.80350 | 8876 ft | 254 kts | 143° |
| 2026-04-27 17:35 | 26.63049 | 50.81576 | 8368 ft | 249 kts | 154° |
| 2026-04-27 17:35 | 26.61472 | 50.82192 | 8032 ft | 235 kts | 179° |
| 2026-04-27 17:36 | 26.59850 | 50.82035 | 7989 ft | 234 kts | 201° |
| 2026-04-27 17:36 | 26.58440 | 50.81178 | 7993 ft | 231 kts | 224° |
| 2026-04-27 17:36 | 26.57481 | 50.79772 | 7994 ft | 228 kts | 246° |
| 2026-04-27 17:36 | 26.56835 | 50.78149 | 7992 ft | 229 kts | 247° |
| 2026-04-27 17:37 | 26.56185 | 50.76527 | 7993 ft | 229 kts | 247° |
| 2026-04-27 17:37 | 26.55542 | 50.74908 | 7841 ft | 227 kts | 247° |
| 2026-04-27 17:37 | 26.54905 | 50.73296 | 7516 ft | 227 kts | 247° |
| 2026-04-27 17:37 | 26.54272 | 50.71688 | 7198 ft | 226 kts | 247° |
| 2026-04-27 17:38 | 26.53650 | 50.70103 | 6887 ft | 225 kts | 247° |
| 2026-04-27 17:38 | 26.53025 | 50.68503 | 6588 ft | 224 kts | 247° |
| 2026-04-27 17:38 | 26.52404 | 50.66909 | 6285 ft | 224 kts | 247° |
| 2026-04-27 17:38 | 26.51787 | 50.65317 | 5969 ft | 223 kts | 247° |
| 2026-04-27 17:39 | 26.51179 | 50.63730 | 5675 ft | 221 kts | 247° |
| 2026-04-27 17:39 | 26.50420 | 50.62259 | 5386 ft | 219 kts | 225° |
| 2026-04-27 17:39 | 26.49093 | 50.61458 | 5061 ft | 220 kts | 192° |
| 2026-04-27 17:39 | 26.47550 | 50.61485 | 4602 ft | 226 kts | 175° |
| 2026-04-27 17:40 | 26.45968 | 50.61784 | 4104 ft | 235 kts | 168° |
| 2026-04-27 17:40 | 26.44382 | 50.62337 | 3626 ft | 242 kts | 164° |
| 2026-04-27 17:40 | 26.42731 | 50.62627 | 3144 ft | 242 kts | 188° |
| 2026-04-27 17:40 | 26.41230 | 50.61923 | 2992 ft | 231 kts | 220° |
| 2026-04-27 17:41 | 26.40382 | 50.60492 | 2982 ft | 218 kts | 253° |
| 2026-04-27 17:41 | 26.40305 | 50.58856 | 2986 ft | 207 kts | 270° |
| 2026-04-27 17:41 | 26.40445 | 50.57281 | 2989 ft | 203 kts | 273° |
| 2026-04-27 17:41 | 26.40606 | 50.55717 | 2990 ft | 202 kts | 273° |
| 2026-04-27 17:42 | 26.40774 | 50.54158 | 2987 ft | 203 kts | 273° |
| 2026-04-27 17:42 | 26.40949 | 50.52597 | 2988 ft | 202 kts | 273° |
| 2026-04-27 17:42 | 26.41122 | 50.51040 | 2986 ft | 202 kts | 273° |
| 2026-04-27 17:42 | 26.41199 | 50.49486 | 2981 ft | 198 kts | 257° |
| 2026-04-27 17:43 | 26.40868 | 50.48003 | 2978 ft | 197 kts | 249° |
| 2026-04-27 17:43 | 26.40448 | 50.46573 | 2975 ft | 196 kts | 244° |
| 2026-04-27 17:43 | 26.39628 | 50.45430 | 2971 ft | 190 kts | 208° |
| 2026-04-27 17:43 | 26.38361 | 50.45131 | 2971 ft | 191 kts | 172° |
| 2026-04-27 17:44 | 26.37181 | 50.45846 | 2974 ft | 198 kts | 132° |
| 2026-04-27 17:44 | 26.36410 | 50.47153 | 2867 ft | 203 kts | 126° |
| 2026-04-27 17:44 | 26.35663 | 50.48462 | 2649 ft | 202 kts | 126° |
| 2026-04-27 17:44 | 26.34894 | 50.49802 | 2397 ft | 203 kts | 126° |
| 2026-04-27 17:45 | 26.34141 | 50.51111 | 2156 ft | 200 kts | 125° |
| 2026-04-27 17:45 | 26.33405 | 50.52391 | 1903 ft | 191 kts | 125° |
| 2026-04-27 17:45 | 26.32703 | 50.53611 | 1699 ft | 181 kts | 125° |
| 2026-04-27 17:45 | 26.32055 | 50.54739 | 1497 ft | 163 kts | 125° |
| 2026-04-27 17:46 | 26.31458 | 50.55773 | 1285 ft | 159 kts | 125° |
| 2026-04-27 17:46 | 26.30859 | 50.56812 | 1066 ft | 160 kts | 125° |
| 2026-04-27 17:46 | 26.30259 | 50.57853 | 858 ft | 160 kts | 124° |
| 2026-04-27 17:46 | 26.29687 | 50.58846 | 652 ft | 145 kts | 123° |
| 2026-04-27 17:47 | 26.29280 | 50.59552 | 550 ft | 140 kts | 124° |
| 2026-04-27 17:47 | 26.28978 | 50.60081 | 440 ft | 138 kts | 123° |
| 2026-04-27 17:47 | 26.28291 | 50.61264 | 213 ft | 136 kts | 123° |
| 2026-04-27 17:47 | 26.27782 | 50.62148 | 44 ft | 135 kts | 123° |
| 2026-04-27 17:48 | 26.27320 | 50.62955 | 17 ft | 106 kts | 122° |
| 2026-04-27 17:48 | 26.27002 | 50.63500 | 15 ft | 66 kts | 123° |
| 2026-04-27 17:48 | 26.26835 | 50.63743 | 16 ft | 15 kts | 178° |
| 2026-04-27 17:48 | 26.26737 | 50.63757 | 19 ft | 13 kts | 168° |
| 2026-04-27 17:49 | 26.26666 | 50.63741 | 21 ft | 9 kts | 184° |
| 2026-04-27 17:49 | 26.26618 | 50.63766 | 21 ft | 7 kts | 169° |
| 2026-04-27 17:49 | 26.26592 | 50.63758 | 21 ft | 0 kts | 204° |
| 2026-04-27 17:50 | 26.26585 | 50.63754 | 21 ft | 1 kts | 205° |
| 2026-04-27 17:50 | 26.26545 | 50.63743 | 23 ft | 6 kts | 192° |
| 2026-04-27 17:50 | 26.26506 | 50.63724 | 21 ft | 6 kts | 208° |
| 2026-04-27 17:51 | 26.26472 | 50.63700 | 22 ft | 6 kts | 214° |
| 2026-04-27 17:51 | 26.26452 | 50.63685 | 21 ft | 0 kts | 213° |
| 2026-04-27 17:51 | 26.26448 | 50.63682 | 21 ft | 0 kts | 212° |